createdAt,value
2019-01-04T00:00:06.346Z,3.57
2019-01-04T00:02:34.369Z,4.67
2019-01-04T00:05:03.150Z,3.00
2019-01-04T00:07:31.673Z,3.50
2019-01-04T00:09:58.413Z,3.10
2019-01-04T00:12:25.100Z,3.67
2019-01-04T00:14:52.245Z,5.87
2019-01-04T00:17:19.042Z,3.80
2019-01-04T00:19:45.889Z,3.50
2019-01-04T00:22:12.575Z,3.20
2019-01-04T00:24:41.038Z,2.97
2019-01-04T00:27:07.835Z,3.37
2019-01-04T00:29:34.910Z,3.10
2019-01-04T00:32:01.594Z,3.30
2019-01-04T00:34:28.364Z,3.80
2019-01-04T00:36:56.194Z,3.90
2019-01-04T00:39:23.020Z,3.10
2019-01-04T00:41:49.854Z,3.80
2019-01-04T00:44:17.765Z,5.13
2019-01-04T00:46:44.572Z,3.87
2019-01-04T00:49:11.318Z,3.73
2019-01-04T00:51:38.100Z,3.97
2019-01-04T00:54:04.858Z,4.37
2019-01-04T00:56:31.887Z,3.67
2019-01-04T00:58:58.519Z,4.23
2019-01-04T01:01:26.659Z,4.27
2019-01-04T01:03:53.566Z,3.77
2019-01-04T01:06:21.558Z,4.47
2019-01-04T01:08:49.622Z,3.77
2019-01-04T01:11:17.492Z,4.20
2019-01-04T01:13:44.080Z,3.17
2019-01-04T01:16:12.660Z,4.03
2019-01-04T01:18:40.976Z,3.80
2019-01-04T01:21:07.720Z,3.33
2019-01-04T01:23:34.373Z,3.07
2019-01-04T01:26:02.858Z,3.43
2019-01-04T01:28:29.619Z,5.77
2019-01-04T01:30:56.426Z,3.50
2019-01-04T01:33:23.217Z,2.87
2019-01-04T01:35:50.088Z,5.03
2019-01-04T01:38:16.723Z,2.67
2019-01-04T01:40:43.463Z,3.57
2019-01-04T01:43:10.187Z,3.37
2019-01-04T01:45:38.053Z,3.47
2019-01-04T01:48:04.817Z,2.43
2019-01-04T01:50:31.467Z,3.80
2019-01-04T01:52:58.245Z,2.90
2019-01-04T01:55:25.032Z,2.63
2019-01-04T01:57:51.701Z,3.40
2019-01-04T02:00:20.247Z,3.03
2019-01-04T02:02:46.873Z,2.90
2019-01-04T02:05:13.502Z,2.50
2019-01-04T02:10:19.353Z,2.83
2019-01-04T02:12:45.995Z,2.43
2019-01-04T02:15:14.431Z,2.73
2019-01-04T02:17:41.499Z,2.60
2019-01-04T02:20:08.265Z,3.33
2019-01-04T02:22:34.896Z,4.83
2019-01-04T02:25:02.096Z,2.90
2019-01-04T02:27:28.871Z,2.87
2019-01-04T02:29:55.601Z,3.17
2019-01-04T02:32:24.262Z,2.50
2019-01-04T02:34:50.959Z,2.33
2019-01-04T02:37:17.636Z,2.87
2019-01-04T02:39:44.433Z,3.60
2019-01-04T02:42:11.111Z,2.30
2019-01-04T02:44:38.958Z,2.37
2019-01-04T02:47:05.822Z,2.20
2019-01-04T02:49:33.080Z,2.30
2019-01-04T02:52:00.118Z,2.60
2019-01-04T02:54:26.775Z,2.10
2019-01-04T02:56:53.648Z,1.73
2019-01-04T02:59:21.563Z,2.60
2019-01-04T03:01:48.498Z,3.10
2019-01-04T03:04:15.906Z,1.77
2019-01-04T03:06:43.902Z,2.23
2019-01-04T03:09:10.910Z,2.30
2019-01-04T03:11:37.964Z,1.90
2019-01-04T03:14:04.678Z,1.90
2019-01-04T03:16:31.316Z,2.23
2019-01-04T03:18:58.056Z,2.40
2019-01-04T03:21:24.824Z,2.17
2019-01-04T03:23:53.640Z,1.67
2019-01-04T03:26:21.046Z,1.87
2019-01-04T03:28:47.660Z,1.70
2019-01-04T03:31:14.837Z,1.47
2019-01-04T03:33:41.465Z,1.97
2019-01-04T03:36:08.379Z,2.00
2019-01-04T03:38:35.278Z,1.80
2019-01-04T03:41:02.091Z,2.07
2019-01-04T03:43:28.706Z,2.03
2019-01-04T03:45:55.390Z,1.90
2019-01-04T03:48:23.811Z,1.60
2019-01-04T03:50:50.562Z,1.80
2019-01-04T03:53:17.654Z,1.50
2019-01-04T03:55:44.240Z,1.50
2019-01-04T03:58:12.017Z,1.53
2019-01-04T04:00:39.143Z,1.60
2019-01-04T04:03:07.054Z,1.57
2019-01-04T04:05:34.349Z,2.20
2019-01-04T04:08:01.077Z,1.73
2019-01-04T04:10:27.749Z,2.03
2019-01-04T04:12:54.593Z,1.67
2019-01-04T04:15:21.489Z,3.00
2019-01-04T04:17:50.102Z,1.60
2019-01-04T04:20:16.844Z,2.33
2019-01-04T04:22:43.767Z,1.50
2019-01-04T04:25:11.025Z,2.20
2019-01-04T04:27:37.612Z,2.27
2019-01-04T04:30:04.427Z,1.50
2019-01-04T04:32:31.210Z,1.50
2019-01-04T04:34:57.917Z,2.03
2019-01-04T04:37:24.697Z,1.77
2019-01-04T04:39:52.529Z,1.47
2019-01-04T04:42:19.359Z,1.43
2019-01-04T04:44:46.013Z,1.33
2019-01-04T04:47:12.701Z,1.40
2019-01-04T04:49:39.799Z,2.10
2019-01-04T04:52:06.531Z,2.20
2019-01-04T04:54:33.546Z,2.93
2019-01-04T04:57:01.360Z,1.67
2019-01-04T04:59:28.173Z,1.67
2019-01-04T05:01:58.147Z,1.73
2019-01-04T05:04:26.192Z,1.30
2019-01-04T05:06:55.011Z,1.50
2019-01-04T05:09:21.722Z,1.53
2019-01-04T05:11:48.348Z,1.67
2019-01-04T05:14:16.829Z,1.50
2019-01-04T05:16:43.752Z,1.57
2019-01-04T05:19:11.499Z,1.60
2019-01-04T05:21:38.246Z,1.40
2019-01-04T05:24:05.259Z,1.60
2019-01-04T05:26:32.023Z,2.00
2019-01-04T05:28:59.149Z,2.13
2019-01-04T05:31:25.734Z,1.40
2019-01-04T05:33:53.084Z,3.20
2019-01-04T05:36:20.086Z,1.97
2019-01-04T05:38:46.986Z,1.53
2019-01-04T05:41:14.359Z,1.10
2019-01-04T05:43:40.993Z,1.57
2019-01-04T05:46:07.713Z,1.60
2019-01-04T05:48:34.446Z,2.47
2019-01-04T05:51:01.746Z,1.30
2019-01-04T05:53:30.441Z,1.57
2019-01-04T05:55:56.964Z,1.80
2019-01-04T05:58:24.600Z,1.63
2019-01-04T06:00:51.248Z,1.30
2019-01-04T06:03:18.014Z,1.60
2019-01-04T06:05:44.832Z,1.50
2019-01-04T06:08:11.802Z,1.40
2019-01-04T06:10:39.650Z,1.57
2019-01-04T06:13:06.393Z,2.03
2019-01-04T06:15:33.263Z,1.47
2019-01-04T06:18:00.546Z,1.40
2019-01-04T06:20:27.362Z,1.50
2019-01-04T06:22:54.471Z,2.07
2019-01-04T06:25:21.126Z,2.93
2019-01-04T06:27:48.156Z,3.13
2019-01-04T06:30:14.994Z,2.80
2019-01-04T06:32:41.771Z,1.67
2019-01-04T06:35:08.590Z,3.23
2019-01-04T06:37:36.664Z,4.43
2019-01-04T06:40:03.284Z,2.17
2019-01-04T06:42:30.255Z,4.00
2019-01-04T06:44:57.241Z,2.27
2019-01-04T06:47:23.954Z,4.50
2019-01-04T06:49:51.875Z,2.27
2019-01-04T06:52:19.836Z,3.50
2019-01-04T06:54:46.519Z,3.20
2019-01-04T06:57:15.356Z,4.27
2019-01-04T06:59:42.358Z,5.27
2019-01-04T07:02:10.227Z,4.17
2019-01-04T07:04:36.963Z,4.33
2019-01-04T07:07:03.595Z,4.83
2019-01-04T07:09:30.770Z,4.63
2019-01-04T07:11:57.555Z,4.43
2019-01-04T07:14:24.678Z,5.17
2019-01-04T07:16:51.379Z,4.57
2019-01-04T07:19:18.138Z,4.90
2019-01-04T07:21:44.850Z,5.07
2019-01-04T07:24:11.707Z,5.33
2019-01-04T07:26:38.425Z,5.47
2019-01-04T07:29:06.374Z,6.03
2019-01-04T07:31:33.403Z,4.73
2019-01-04T07:34:00.415Z,6.97
2019-01-04T07:36:27.275Z,4.33
2019-01-04T07:38:58.138Z,5.70
2019-01-04T07:41:26.707Z,4.30
2019-01-04T07:43:55.011Z,4.83
2019-01-04T07:46:21.855Z,4.00
2019-01-04T07:48:48.760Z,7.97
2019-01-04T07:51:15.522Z,5.50
2019-01-04T07:53:42.207Z,6.13
2019-01-04T07:56:09.210Z,4.47
2019-01-04T07:58:36.076Z,3.93
2019-01-04T08:01:03.922Z,4.23
2019-01-04T08:03:30.745Z,5.33
2019-01-04T08:05:57.790Z,4.63
2019-01-04T08:08:25.042Z,4.00
2019-01-04T08:10:52.294Z,5.03
2019-01-04T08:13:19.043Z,4.70
2019-01-04T08:15:45.996Z,4.10
2019-01-04T08:18:13.766Z,3.87
2019-01-04T08:20:40.839Z,5.73
2019-01-04T08:23:09.454Z,4.67
2019-01-04T08:25:36.151Z,4.30
2019-01-04T08:28:02.860Z,3.80
2019-01-04T08:30:30.523Z,5.97
2019-01-04T08:32:57.164Z,4.07
2019-01-04T08:35:26.016Z,4.57
2019-01-04T08:37:52.894Z,4.60
2019-01-04T08:40:19.716Z,4.87
2019-01-04T08:42:46.501Z,4.37
2019-01-04T08:45:13.254Z,3.80
2019-01-04T08:47:40.383Z,3.73
2019-01-04T08:50:07.228Z,3.90
2019-01-04T08:52:34.179Z,4.23
2019-01-04T08:55:00.941Z,5.17
2019-01-04T08:57:28.064Z,4.93
2019-01-04T08:59:55.926Z,4.50
2019-01-04T09:02:23.310Z,4.27
2019-01-04T09:04:50.321Z,4.20
2019-01-04T09:07:18.090Z,4.37
2019-01-04T09:09:45.927Z,3.87
2019-01-04T09:12:14.330Z,4.07
2019-01-04T09:14:42.430Z,4.00
2019-01-04T09:17:09.269Z,4.23
2019-01-04T09:19:35.928Z,4.50
2019-01-04T09:22:02.761Z,5.13
2019-01-04T09:24:29.842Z,4.73
2019-01-04T09:26:56.527Z,4.77
2019-01-04T09:29:23.399Z,3.77
2019-01-04T09:31:50.140Z,5.73
2019-01-04T09:34:16.954Z,6.20
2019-01-04T09:36:43.690Z,5.47
2019-01-04T09:39:10.640Z,5.00
2019-01-04T09:41:38.683Z,5.60
2019-01-04T09:44:05.779Z,8.33
2019-01-04T09:46:32.677Z,4.83
2019-01-04T09:49:01.288Z,5.50
2019-01-04T09:51:28.564Z,6.53
2019-01-04T09:53:55.571Z,6.60
2019-01-04T09:56:22.238Z,6.53
2019-01-04T09:58:49.092Z,6.63
2019-01-04T10:01:16.245Z,10.97
2019-01-04T10:03:43.199Z,7.10
2019-01-04T10:06:09.858Z,7.47
2019-01-04T10:08:36.875Z,8.00
2019-01-04T10:11:03.676Z,8.50
2019-01-04T10:13:31.457Z,9.50
2019-01-04T10:15:58.213Z,9.87
2019-01-04T10:18:24.877Z,9.27
2019-01-04T10:20:51.937Z,9.20
2019-01-04T10:25:57.933Z,8.23
2019-01-04T10:28:24.566Z,10.37
2019-01-04T10:30:51.160Z,10.20
2019-01-04T10:33:17.807Z,10.83
2019-01-04T10:35:44.842Z,10.57
2019-01-04T10:38:11.503Z,11.77
2019-01-04T10:40:38.124Z,12.13
2019-01-04T10:43:05.149Z,12.73
2019-01-04T10:45:31.923Z,13.87
2019-01-04T10:47:58.696Z,13.70
2019-01-04T10:50:25.497Z,11.87
2019-01-04T10:52:52.422Z,13.93
2019-01-04T10:55:20.944Z,12.03
2019-01-04T10:57:48.914Z,12.63
2019-01-04T11:00:15.774Z,15.40
2019-01-04T11:02:44.663Z,12.13
2019-01-04T11:05:11.285Z,13.10
2019-01-04T11:07:38.274Z,15.03
2019-01-04T11:10:05.058Z,13.73
2019-01-04T11:12:32.098Z,13.57
2019-01-04T11:14:58.893Z,14.23
2019-01-04T11:17:25.567Z,14.77
2019-01-04T11:19:52.360Z,14.33
2019-01-04T11:22:19.106Z,14.03
2019-01-04T11:24:46.389Z,12.23
2019-01-04T11:27:13.246Z,15.07
2019-01-04T11:29:41.381Z,12.77
2019-01-04T11:32:08.303Z,13.20
2019-01-04T11:34:35.094Z,14.57
2019-01-04T11:37:01.890Z,16.97
2019-01-04T11:39:29.756Z,16.23
2019-01-04T11:41:56.701Z,14.30
2019-01-04T11:44:23.644Z,17.27
2019-01-04T11:46:51.148Z,18.37
2019-01-04T11:49:19.094Z,14.93
2019-01-04T11:51:45.944Z,13.07
2019-01-04T11:54:13.858Z,17.07
2019-01-04T11:56:42.238Z,14.67
2019-01-04T11:59:09.401Z,18.63
2019-01-04T12:01:36.695Z,16.53
2019-01-04T12:04:03.445Z,16.73
2019-01-04T12:06:31.490Z,16.00
2019-01-04T12:08:58.287Z,15.53
2019-01-04T12:11:25.796Z,15.33
2019-01-04T12:13:53.514Z,17.73
2019-01-04T12:16:20.707Z,18.03
2019-01-04T12:18:48.809Z,17.30
2019-01-04T12:21:16.021Z,18.23
2019-01-04T12:23:44.565Z,18.70
2019-01-04T12:26:11.360Z,16.10
2019-01-04T12:28:38.311Z,19.13
2019-01-04T12:31:05.182Z,15.83
2019-01-04T12:33:33.160Z,20.70
2019-01-04T12:35:59.749Z,20.33
2019-01-04T12:38:26.622Z,18.70
2019-01-04T12:40:56.582Z,17.47
2019-01-04T12:43:22.525Z,19.67
2019-01-04T12:45:49.310Z,20.53
2019-01-04T12:48:16.145Z,15.27
2019-01-04T12:50:44.138Z,18.80
2019-01-04T12:53:11.048Z,14.97
2019-01-04T12:55:38.520Z,15.63
2019-01-04T12:58:05.269Z,14.83
2019-01-04T13:00:33.401Z,14.20
2019-01-04T13:03:00.147Z,16.20
2019-01-04T13:05:26.904Z,17.47
2019-01-04T13:07:53.690Z,13.20
2019-01-04T13:10:20.350Z,16.67
2019-01-04T13:12:47.114Z,15.17
2019-01-04T13:15:13.952Z,15.83
2019-01-04T13:17:42.643Z,16.67
2019-01-04T13:20:09.441Z,19.40
2019-01-04T13:22:36.136Z,15.97
2019-01-04T13:25:02.797Z,14.77
2019-01-04T13:27:29.509Z,13.60
2019-01-04T13:29:56.580Z,14.57
2019-01-04T13:32:23.332Z,18.30
2019-01-04T13:34:50.037Z,14.00
2019-01-04T13:37:16.809Z,14.77
2019-01-04T13:39:43.618Z,16.93
2019-01-04T13:42:10.841Z,17.17
2019-01-04T13:44:37.610Z,17.17
2019-01-04T13:47:04.369Z,18.73
2019-01-04T13:49:31.111Z,14.83
2019-01-04T13:51:57.851Z,13.97
2019-01-04T13:54:24.630Z,18.40
2019-01-04T13:56:51.421Z,16.33
2019-01-04T13:59:18.332Z,16.07
2019-01-04T14:01:45.592Z,13.83
2019-01-04T14:04:12.426Z,16.43
2019-01-04T14:06:39.210Z,14.77
2019-01-04T14:09:05.931Z,13.60
2019-01-04T14:11:32.664Z,15.03
2019-01-04T14:13:59.370Z,15.00
2019-01-04T14:16:26.231Z,20.10
2019-01-04T14:18:53.121Z,18.57
2019-01-04T14:21:19.905Z,24.40
2019-01-04T14:23:46.769Z,18.00
2019-01-04T14:26:13.504Z,23.27
2019-01-04T14:28:40.464Z,20.07
2019-01-04T14:31:08.252Z,18.30
2019-01-04T14:33:35.254Z,17.10
2019-01-04T14:36:03.823Z,19.53
2019-01-04T14:38:33.342Z,16.97
2019-01-04T14:41:00.464Z,17.37
2019-01-04T14:43:27.623Z,18.00
2019-01-04T14:45:54.641Z,17.23
2019-01-04T14:48:21.916Z,16.27
2019-01-04T14:50:48.677Z,16.83
2019-01-04T14:53:16.482Z,16.87
2019-01-04T14:55:44.120Z,15.33
2019-01-04T14:58:10.935Z,15.97
2019-01-04T15:00:38.658Z,17.33
2019-01-04T15:03:06.564Z,18.67
2019-01-04T15:05:33.451Z,17.03
2019-01-04T15:08:00.542Z,15.93
2019-01-04T15:10:28.999Z,16.37
2019-01-04T15:12:55.791Z,15.30
2019-01-04T15:15:22.526Z,17.40
2019-01-04T15:17:49.403Z,14.00
2019-01-04T15:20:17.352Z,18.13
2019-01-04T15:22:46.001Z,17.97
2019-01-04T15:25:12.644Z,16.87
2019-01-04T15:27:39.343Z,17.10
2019-01-04T15:30:06.557Z,15.30
2019-01-04T15:32:33.339Z,14.27
2019-01-04T15:35:02.447Z,17.63
2019-01-04T15:37:29.375Z,14.70
2019-01-04T15:39:56.045Z,12.67
2019-01-04T15:42:23.169Z,15.70
2019-01-04T15:44:49.970Z,14.10
2019-01-04T15:47:16.795Z,15.07
2019-01-04T15:49:43.904Z,16.23
2019-01-04T15:52:10.774Z,16.73
2019-01-04T15:54:37.997Z,15.73
2019-01-04T15:57:04.807Z,14.30
2019-01-04T15:59:31.767Z,17.57
2019-01-04T16:01:58.829Z,13.43
2019-01-04T16:04:25.511Z,14.20
2019-01-04T16:06:52.858Z,14.10
2019-01-04T16:09:19.540Z,14.20
2019-01-04T16:11:46.430Z,14.90
2019-01-04T16:14:13.140Z,14.97
2019-01-04T16:16:42.107Z,14.00
2019-01-04T16:19:08.746Z,13.40
2019-01-04T16:21:35.600Z,15.33
2019-01-04T16:24:02.362Z,14.03
2019-01-04T16:26:29.195Z,12.87
2019-01-04T16:28:58.287Z,16.10
2019-01-04T16:31:26.191Z,13.53
2019-01-04T16:33:53.374Z,12.23
2019-01-04T16:36:20.205Z,13.97
2019-01-04T16:38:47.472Z,15.97
2019-01-04T16:41:14.655Z,12.03
2019-01-04T16:43:41.298Z,12.80
2019-01-04T16:46:08.929Z,15.07
2019-01-04T16:48:35.788Z,13.87
2019-01-04T16:51:02.682Z,12.43
2019-01-04T16:53:29.361Z,11.73
2019-01-04T16:55:56.024Z,13.50
2019-01-04T16:58:23.891Z,13.13
2019-01-04T17:00:50.638Z,13.87
2019-01-04T17:03:17.478Z,13.63
2019-01-04T17:05:44.141Z,12.23
2019-01-04T17:08:13.230Z,12.13
2019-01-04T17:10:41.858Z,10.83
2019-01-04T17:13:08.850Z,12.83
2019-01-04T17:15:36.657Z,10.53
2019-01-04T17:18:03.452Z,11.90
2019-01-04T17:20:30.225Z,12.30
2019-01-04T17:22:56.964Z,11.83
2019-01-04T17:25:23.593Z,11.37
2019-01-04T17:27:50.224Z,11.03
2019-01-04T17:30:17.033Z,10.70
2019-01-04T17:32:43.822Z,10.63
2019-01-04T17:35:10.982Z,10.23
2019-01-04T17:37:37.729Z,13.10
2019-01-04T17:40:07.456Z,9.87
2019-01-04T17:42:34.246Z,10.97
2019-01-04T17:45:01.057Z,13.13
2019-01-04T17:47:28.107Z,9.37
2019-01-04T17:50:00.570Z,10.67
2019-01-04T17:52:27.775Z,11.23
2019-01-04T17:54:54.615Z,10.90
2019-01-04T17:57:21.366Z,9.67
2019-01-04T17:59:48.595Z,9.80
2019-01-04T18:02:15.215Z,11.30
2019-01-04T18:04:41.870Z,10.23
2019-01-04T18:07:08.726Z,8.97
2019-01-04T18:09:35.507Z,11.10
2019-01-04T18:12:02.518Z,10.33
2019-01-04T18:14:30.450Z,9.00
2019-01-04T18:16:57.112Z,9.47
2019-01-04T18:19:23.766Z,9.93
2019-01-04T18:21:50.610Z,11.27
2019-01-04T18:24:17.640Z,10.20
2019-01-04T18:26:44.329Z,10.50
2019-01-04T18:29:12.690Z,9.83
2019-01-04T18:31:39.609Z,8.10
2019-01-04T18:34:06.851Z,9.00
2019-01-04T18:36:35.173Z,9.50
2019-01-04T18:39:01.741Z,8.30
2019-01-04T18:41:28.480Z,9.07
2019-01-04T18:43:55.175Z,9.50
2019-01-04T18:46:21.846Z,9.33
2019-01-04T18:48:48.577Z,11.23
2019-01-04T18:51:15.308Z,9.57
2019-01-04T18:53:42.142Z,9.47
2019-01-04T18:56:08.887Z,11.27
2019-01-04T18:58:35.700Z,8.40
2019-01-04T19:01:02.890Z,9.20
2019-01-04T19:03:29.670Z,10.27
2019-01-04T19:05:56.367Z,10.17
2019-01-04T19:08:25.104Z,10.33
2019-01-04T19:10:51.899Z,8.90
2019-01-04T19:13:19.473Z,8.37
2019-01-04T19:15:46.310Z,8.00
2019-01-04T19:18:13.339Z,12.07
2019-01-04T19:20:40.199Z,9.20
2019-01-04T19:23:08.062Z,10.50
2019-01-04T19:25:35.008Z,8.53
2019-01-04T19:28:02.152Z,9.13
2019-01-04T19:30:28.856Z,10.17
2019-01-04T19:32:55.658Z,7.83
2019-01-04T19:35:22.281Z,9.47
2019-01-04T19:37:49.040Z,8.93
2019-01-04T19:40:15.902Z,6.80
2019-01-04T19:42:42.602Z,9.67
2019-01-04T19:45:09.372Z,8.80
2019-01-04T19:47:36.082Z,9.37
2019-01-04T19:50:04.000Z,10.47
2019-01-04T19:52:30.534Z,12.23
2019-01-04T19:54:57.140Z,10.90
2019-01-04T19:57:25.082Z,9.30
2019-01-04T19:59:52.199Z,9.57
2019-01-04T20:02:19.410Z,8.13
2019-01-04T20:04:46.140Z,8.70
2019-01-04T20:07:30.997Z,8.70
2019-01-04T20:10:15.830Z,9.10
2019-01-04T20:13:08.985Z,8.37
2019-01-04T20:15:58.023Z,9.60
2019-01-04T20:18:46.958Z,9.80
2019-01-04T20:21:51.546Z,9.70
2019-01-04T20:24:55.909Z,8.80
2019-01-04T20:27:43.747Z,9.33
2019-01-04T20:30:28.826Z,9.30
2019-01-04T20:33:17.696Z,9.90
2019-01-04T20:36:09.524Z,8.73
2019-01-04T20:39:02.859Z,11.50
2019-01-04T20:41:47.431Z,12.23
2019-01-04T20:44:32.193Z,10.77
2019-01-04T20:47:37.379Z,11.67
2019-01-04T20:50:38.872Z,9.93
2019-01-04T20:53:30.996Z,11.80
2019-01-04T20:56:23.293Z,9.63
2019-01-04T20:59:17.362Z,9.27
2019-01-04T21:02:20.411Z,11.80
2019-01-04T21:05:18.725Z,9.53
2019-01-04T21:08:07.795Z,10.23
2019-01-04T21:11:09.047Z,10.53
2019-01-04T21:14:13.574Z,11.97
2019-01-04T21:17:06.967Z,11.53
2019-01-04T21:19:58.871Z,10.30
2019-01-04T21:22:49.074Z,9.87
2019-01-04T21:25:27.235Z,10.20
2019-01-04T21:28:05.211Z,11.87
2019-01-04T21:30:50.241Z,10.90
2019-01-04T21:33:35.124Z,10.07
2019-01-04T21:36:24.376Z,8.97
2019-01-04T21:39:13.995Z,11.03
2019-01-04T21:42:00.228Z,11.33
2019-01-04T21:44:48.284Z,10.47
2019-01-04T21:47:35.683Z,13.00
2019-01-04T21:50:21.419Z,11.63
2019-01-04T21:53:11.035Z,11.27
2019-01-04T21:56:15.716Z,10.27
2019-01-04T21:59:07.032Z,9.73
2019-01-04T22:02:05.665Z,12.17
2019-01-04T22:04:51.547Z,10.93
2019-01-04T22:07:44.371Z,12.00
2019-01-04T22:10:49.100Z,11.73
2019-01-04T22:13:28.213Z,9.33
2019-01-04T22:16:17.498Z,14.17
2019-01-04T22:19:02.479Z,11.50
2019-01-04T22:21:47.358Z,10.03
2019-01-04T22:24:29.042Z,11.77
2019-01-04T22:27:24.168Z,9.20
2019-01-04T22:30:08.957Z,13.77
2019-01-04T22:32:46.546Z,12.93
2019-01-04T22:35:22.881Z,12.37
2019-01-04T22:38:27.650Z,11.10
2019-01-04T22:41:16.878Z,13.27
2019-01-04T22:44:05.833Z,13.53
2019-01-04T22:47:06.665Z,10.00
2019-01-04T22:49:51.477Z,11.90
2019-01-04T22:52:53.113Z,11.80
2019-01-04T22:55:38.180Z,11.67
2019-01-04T22:58:26.854Z,12.83
2019-01-04T23:01:09.087Z,13.60
2019-01-04T23:03:54.421Z,9.17
2019-01-04T23:06:39.483Z,14.20
2019-01-04T23:09:36.612Z,13.50
2019-01-04T23:12:22.421Z,11.87
2019-01-04T23:15:07.187Z,10.80
2019-01-04T23:17:52.156Z,10.90
2019-01-04T23:20:37.046Z,10.07
2019-01-04T23:23:22.112Z,10.23
2019-01-04T23:26:07.208Z,11.87
2019-01-04T23:29:08.831Z,13.50
2019-01-04T23:31:53.695Z,13.77
2019-01-04T23:34:38.675Z,12.37
2019-01-04T23:37:23.309Z,12.00
2019-01-04T23:40:27.874Z,11.33
2019-01-04T23:43:13.033Z,8.97
2019-01-04T23:45:57.985Z,12.20
2019-01-04T23:48:47.595Z,9.60
2019-01-04T23:51:37.073Z,11.20
2019-01-04T23:54:35.715Z,11.50
2019-01-04T23:57:40.013Z,12.73
